Terminal Aerodrome Forecast
Issued by NWS Charleston, WV

Current Version | Previous Version | Text Only | Print | Product List | Glossary Off
Versions: 1 2 3 4 5 6 7 8 9 10 11 12 13 14 15 16 17 18 19 20 21

000
FTUS41 KRLX 302300
TAFPKB
TAF
KPKB 302333Z 0100/0124 33007KT P6SM BKN040
     FM010800 34005KT P6SM BKN025
     FM010900 35005KT 5SM -SHRA BR OVC008
     FM011200 35005KT P6SM BKN015
     FM011500 33010G18KT P6SM BKN035=

USA.gov is the U.S. government's official web portal to all federal, state and local government web resources and services.